sensor_id;sensor_type;location;lat;lon;timestamp;temperature;humidity
13049;DHT22;6591;51.446;5.404;2023-04-24T00:02:02;13.80;99.90
13049;DHT22;6591;51.446;5.404;2023-04-24T00:04:30;13.10;99.90
13049;DHT22;6591;51.446;5.404;2023-04-24T00:06:59;14.10;99.90
13049;DHT22;6591;51.446;5.404;2023-04-24T00:09:26;12.90;99.90
13049;DHT22;6591;51.446;5.404;2023-04-24T00:11:53;12.90;99.90
13049;DHT22;6591;51.446;5.404;2023-04-24T00:14:21;14.10;99.90
13049;DHT22;6591;51.446;5.404;2023-04-24T00:16:48;12.50;99.90
13049;DHT22;6591;51.446;5.404;2023-04-24T00:19:16;11.90;99.90
13049;DHT22;6591;51.446;5.404;2023-04-24T00:21:43;13.10;99.90
13049;DHT22;6591;51.446;5.404;2023-04-24T00:24:10;11.80;99.90
13049;DHT22;6591;51.446;5.404;2023-04-24T00:26:37;12.90;99.90
13049;DHT22;6591;51.446;5.404;2023-04-24T00:29:04;12.20;99.90
13049;DHT22;6591;51.446;5.404;2023-04-24T00:31:31;12.90;99.90
13049;DHT22;6591;51.446;5.404;2023-04-24T00:34:02;11.90;99.90
13049;DHT22;6591;51.446;5.404;2023-04-24T00:36:29;11.80;99.90
13049;DHT22;6591;51.446;5.404;2023-04-24T00:38:57;11.80;99.90
13049;DHT22;6591;51.446;5.404;2023-04-24T00:41:25;14.30;99.90
13049;DHT22;6591;51.446;5.404;2023-04-24T00:43:52;12.60;99.90
13049;DHT22;6591;51.446;5.404;2023-04-24T00:46:21;11.80;99.90
13049;DHT22;6591;51.446;5.404;2023-04-24T00:48:48;11.80;99.90
13049;DHT22;6591;51.446;5.404;2023-04-24T00:51:16;11.80;99.90
13049;DHT22;6591;51.446;5.404;2023-04-24T00:53:43;13.20;99.90
13049;DHT22;6591;51.446;5.404;2023-04-24T00:56:10;13.30;99.90
13049;DHT22;6591;51.446;5.404;2023-04-24T00:58:38;11.70;99.90
13049;DHT22;6591;51.446;5.404;2023-04-24T01:01:06;11.70;99.90
13049;DHT22;6591;51.446;5.404;2023-04-24T01:03:34;11.70;99.90
13049;DHT22;6591;51.446;5.404;2023-04-24T01:06:04;12.00;99.90
13049;DHT22;6591;51.446;5.404;2023-04-24T01:08:32;11.70;99.90
13049;DHT22;6591;51.446;5.404;2023-04-24T01:11:04;11.70;99.90
13049;DHT22;6591;51.446;5.404;2023-04-24T01:13:32;11.70;99.90
13049;DHT22;6591;51.446;5.404;2023-04-24T01:16:00;11.70;99.90
13049;DHT22;6591;51.446;5.404;2023-04-24T01:18:28;11.90;99.90
13049;DHT22;6591;51.446;5.404;2023-04-24T01:20:59;11.70;99.90
13049;DHT22;6591;51.446;5.404;2023-04-24T01:23:30;11.60;99.90
13049;DHT22;6591;51.446;5.404;2023-04-24T01:25:57;11.60;99.90
13049;DHT22;6591;51.446;5.404;2023-04-24T01:28:25;11.60;99.90
13049;DHT22;6591;51.446;5.404;2023-04-24T01:30:52;13.90;99.90
13049;DHT22;6591;51.446;5.404;2023-04-24T01:33:23;11.60;99.90
13049;DHT22;6591;51.446;5.404;2023-04-24T01:35:50;13.40;99.90
13049;DHT22;6591;51.446;5.404;2023-04-24T01:38:17;14.00;99.90
13049;DHT22;6591;51.446;5.404;2023-04-24T01:40:44;11.50;99.90
13049;DHT22;6591;51.446;5.404;2023-04-24T01:43:12;11.50;99.90
13049;DHT22;6591;51.446;5.404;2023-04-24T01:45:39;13.10;99.90
13049;DHT22;6591;51.446;5.404;2023-04-24T01:48:07;12.40;99.90
13049;DHT22;6591;51.446;5.404;2023-04-24T01:50:34;11.90;99.90
13049;DHT22;6591;51.446;5.404;2023-04-24T01:53:02;11.50;99.90
13049;DHT22;6591;51.446;5.404;2023-04-24T01:55:30;13.10;99.90
13049;DHT22;6591;51.446;5.404;2023-04-24T01:57:57;12.80;99.90
13049;DHT22;6591;51.446;5.404;2023-04-24T02:00:26;12.30;99.90
13049;DHT22;6591;51.446;5.404;2023-04-24T02:02:53;11.50;99.90
13049;DHT22;6591;51.446;5.404;2023-04-24T02:05:20;12.10;99.90
13049;DHT22;6591;51.446;5.404;2023-04-24T02:07:48;11.50;99.90
13049;DHT22;6591;51.446;5.404;2023-04-24T02:10:15;11.50;99.90
13049;DHT22;6591;51.446;5.404;2023-04-24T02:12:42;11.50;99.90
13049;DHT22;6591;51.446;5.404;2023-04-24T02:15:10;11.80;99.90
13049;DHT22;6591;51.446;5.404;2023-04-24T02:17:37;11.40;99.90
13049;DHT22;6591;51.446;5.404;2023-04-24T02:20:06;11.40;99.90
13049;DHT22;6591;51.446;5.404;2023-04-24T02:22:34;11.40;99.90
13049;DHT22;6591;51.446;5.404;2023-04-24T02:25:01;12.60;99.90
13049;DHT22;6591;51.446;5.404;2023-04-24T02:27:29;11.40;99.90
13049;DHT22;6591;51.446;5.404;2023-04-24T02:29:56;11.40;99.90
13049;DHT22;6591;51.446;5.404;2023-04-24T02:32:24;12.20;99.90
13049;DHT22;6591;51.446;5.404;2023-04-24T02:34:51;12.40;99.90
13049;DHT22;6591;51.446;5.404;2023-04-24T02:37:18;11.40;99.90
13049;DHT22;6591;51.446;5.404;2023-04-24T02:39:46;11.40;99.90
13049;DHT22;6591;51.446;5.404;2023-04-24T02:42:12;12.10;99.90
13049;DHT22;6591;51.446;5.404;2023-04-24T02:44:39;13.10;99.90
13049;DHT22;6591;51.446;5.404;2023-04-24T02:47:07;12.60;99.90
13049;DHT22;6591;51.446;5.404;2023-04-24T02:49:35;13.00;99.90
13049;DHT22;6591;51.446;5.404;2023-04-24T02:52:02;11.40;99.90
13049;DHT22;6591;51.446;5.404;2023-04-24T02:54:29;11.40;99.90
13049;DHT22;6591;51.446;5.404;2023-04-24T02:56:56;11.40;99.90
13049;DHT22;6591;51.446;5.404;2023-04-24T02:59:23;11.40;99.90
13049;DHT22;6591;51.446;5.404;2023-04-24T03:01:50;13.70;99.90
13049;DHT22;6591;51.446;5.404;2023-04-24T03:04:17;11.90;99.90
13049;DHT22;6591;51.446;5.404;2023-04-24T03:06:47;11.40;99.90
13049;DHT22;6591;51.446;5.404;2023-04-24T03:09:14;11.40;99.90
13049;DHT22;6591;51.446;5.404;2023-04-24T03:11:41;11.40;99.90
13049;DHT22;6591;51.446;5.404;2023-04-24T03:14:08;11.40;99.90
13049;DHT22;6591;51.446;5.404;2023-04-24T03:16:37;11.40;99.90
13049;DHT22;6591;51.446;5.404;2023-04-24T03:19:06;11.00;99.90
13049;DHT22;6591;51.446;5.404;2023-04-24T03:21:40;11.40;99.90
13049;DHT22;6591;51.446;5.404;2023-04-24T03:24:08;11.40;99.90
13049;DHT22;6591;51.446;5.404;2023-04-24T03:26:36;12.70;99.90
13049;DHT22;6591;51.446;5.404;2023-04-24T03:29:16;11.30;99.90
13049;DHT22;6591;51.446;5.404;2023-04-24T03:31:44;11.80;99.90
13049;DHT22;6591;51.446;5.404;2023-04-24T03:34:11;12.90;99.90
13049;DHT22;6591;51.446;5.404;2023-04-24T03:36:38;13.10;99.90
13049;DHT22;6591;51.446;5.404;2023-04-24T03:39:07;11.30;99.90
13049;DHT22;6591;51.446;5.404;2023-04-24T03:41:36;11.30;99.90
13049;DHT22;6591;51.446;5.404;2023-04-24T03:44:09;13.40;99.90
13049;DHT22;6591;51.446;5.404;2023-04-24T03:46:37;11.30;99.90
13049;DHT22;6591;51.446;5.404;2023-04-24T03:49:04;12.60;99.90
13049;DHT22;6591;51.446;5.404;2023-04-24T03:51:36;12.20;99.90
13049;DHT22;6591;51.446;5.404;2023-04-24T03:54:32;11.30;99.90
13049;DHT22;6591;51.446;5.404;2023-04-24T03:57:00;11.30;99.90
13049;DHT22;6591;51.446;5.404;2023-04-24T03:59:30;13.20;99.90
13049;DHT22;6591;51.446;5.404;2023-04-24T04:02:08;11.30;99.90
13049;DHT22;6591;51.446;5.404;2023-04-24T04:04:35;11.30;99.90
13049;DHT22;6591;51.446;5.404;2023-04-24T04:07:02;11.30;99.90
13049;DHT22;6591;51.446;5.404;2023-04-24T04:09:30;11.30;99.90
13049;DHT22;6591;51.446;5.404;2023-04-24T04:11:57;11.40;99.90
13049;DHT22;6591;51.446;5.404;2023-04-24T04:14:25;11.30;99.90
13049;DHT22;6591;51.446;5.404;2023-04-24T04:16:52;11.30;99.90
13049;DHT22;6591;51.446;5.404;2023-04-24T04:19:21;11.30;99.90
13049;DHT22;6591;51.446;5.404;2023-04-24T04:21:48;11.30;99.90
13049;DHT22;6591;51.446;5.404;2023-04-24T04:24:39;12.70;99.90
13049;DHT22;6591;51.446;5.404;2023-04-24T04:27:08;11.50;99.90
13049;DHT22;6591;51.446;5.404;2023-04-24T04:29:44;11.30;99.90
13049;DHT22;6591;51.446;5.404;2023-04-24T04:32:13;11.20;99.90
13049;DHT22;6591;51.446;5.404;2023-04-24T04:34:40;12.30;99.90
13049;DHT22;6591;51.446;5.404;2023-04-24T04:37:10;11.10;99.90
13049;DHT22;6591;51.446;5.404;2023-04-24T04:39:48;11.10;99.90
13049;DHT22;6591;51.446;5.404;2023-04-24T04:42:19;12.10;99.90
13049;DHT22;6591;51.446;5.404;2023-04-24T04:44:46;11.10;99.90
13049;DHT22;6591;51.446;5.404;2023-04-24T04:47:18;12.30;99.90
13049;DHT22;6591;51.446;5.404;2023-04-24T04:49:50;12.40;99.90
13049;DHT22;6591;51.446;5.404;2023-04-24T04:52:23;11.00;99.90
13049;DHT22;6591;51.446;5.404;2023-04-24T04:55:05;11.00;99.90
13049;DHT22;6591;51.446;5.404;2023-04-24T04:57:53;11.00;99.90
13049;DHT22;6591;51.446;5.404;2023-04-24T05:00:20;11.00;99.90
13049;DHT22;6591;51.446;5.404;2023-04-24T05:02:51;11.30;99.90
13049;DHT22;6591;51.446;5.404;2023-04-24T05:05:18;11.00;99.90
13049;DHT22;6591;51.446;5.404;2023-04-24T05:07:45;11.00;99.90
13049;DHT22;6591;51.446;5.404;2023-04-24T05:10:13;11.00;99.90
13049;DHT22;6591;51.446;5.404;2023-04-24T05:12:40;11.00;99.90
13049;DHT22;6591;51.446;5.404;2023-04-24T05:15:08;11.00;99.90
13049;DHT22;6591;51.446;5.404;2023-04-24T05:17:36;11.00;99.90
13049;DHT22;6591;51.446;5.404;2023-04-24T05:20:04;11.80;99.90
13049;DHT22;6591;51.446;5.404;2023-04-24T05:22:35;11.00;99.90
13049;DHT22;6591;51.446;5.404;2023-04-24T05:25:02;11.00;99.90
13049;DHT22;6591;51.446;5.404;2023-04-24T05:27:37;11.00;99.90
13049;DHT22;6591;51.446;5.404;2023-04-24T05:30:10;11.20;99.90
13049;DHT22;6591;51.446;5.404;2023-04-24T05:32:37;11.00;99.90
13049;DHT22;6591;51.446;5.404;2023-04-24T05:35:05;11.00;99.90
13049;DHT22;6591;51.446;5.404;2023-04-24T05:37:32;11.00;99.90
13049;DHT22;6591;51.446;5.404;2023-04-24T05:39:59;11.00;99.90
13049;DHT22;6591;51.446;5.404;2023-04-24T05:42:26;11.00;99.90
13049;DHT22;6591;51.446;5.404;2023-04-24T05:44:53;11.00;99.90
13049;DHT22;6591;51.446;5.404;2023-04-24T05:47:24;10.90;99.90
13049;DHT22;6591;51.446;5.404;2023-04-24T05:49:52;10.90;99.90
13049;DHT22;6591;51.446;5.404;2023-04-24T05:52:20;10.80;99.90
13049;DHT22;6591;51.446;5.404;2023-04-24T05:54:48;10.80;99.90
13049;DHT22;6591;51.446;5.404;2023-04-24T05:57:20;12.70;99.90
13049;DHT22;6591;51.446;5.404;2023-04-24T05:59:58;10.80;99.90
13049;DHT22;6591;51.446;5.404;2023-04-24T06:02:25;12.20;99.90
13049;DHT22;6591;51.446;5.404;2023-04-24T06:04:52;10.80;99.90
13049;DHT22;6591;51.446;5.404;2023-04-24T06:07:20;11.90;99.90
13049;DHT22;6591;51.446;5.404;2023-04-24T06:09:47;10.70;99.90
13049;DHT22;6591;51.446;5.404;2023-04-24T06:12:15;11.30;99.90
13049;DHT22;6591;51.446;5.404;2023-04-24T06:14:55;10.70;99.90
13049;DHT22;6591;51.446;5.404;2023-04-24T06:17:47;10.80;99.90
13049;DHT22;6591;51.446;5.404;2023-04-24T06:20:15;10.80;99.90
13049;DHT22;6591;51.446;5.404;2023-04-24T06:22:42;10.60;99.90
13049;DHT22;6591;51.446;5.404;2023-04-24T06:25:10;10.60;99.90
13049;DHT22;6591;51.446;5.404;2023-04-24T06:27:37;10.60;99.90
13049;DHT22;6591;51.446;5.404;2023-04-24T06:30:04;10.60;99.90
13049;DHT22;6591;51.446;5.404;2023-04-24T06:32:32;10.60;99.90
13049;DHT22;6591;51.446;5.404;2023-04-24T06:34:59;12.40;99.90
13049;DHT22;6591;51.446;5.404;2023-04-24T06:37:27;10.60;99.90
13049;DHT22;6591;51.446;5.404;2023-04-24T06:39:54;10.60;99.90
13049;DHT22;6591;51.446;5.404;2023-04-24T06:42:21;10.60;99.90
13049;DHT22;6591;51.446;5.404;2023-04-24T06:44:49;10.60;99.90
13049;DHT22;6591;51.446;5.404;2023-04-24T06:47:16;10.60;99.90
13049;DHT22;6591;51.446;5.404;2023-04-24T06:49:43;10.60;99.90
13049;DHT22;6591;51.446;5.404;2023-04-24T06:52:10;10.60;99.90
13049;DHT22;6591;51.446;5.404;2023-04-24T06:54:37;10.60;99.90
13049;DHT22;6591;51.446;5.404;2023-04-24T06:57:04;10.60;99.90
13049;DHT22;6591;51.446;5.404;2023-04-24T06:59:31;11.60;99.90
13049;DHT22;6591;51.446;5.404;2023-04-24T07:01:58;10.60;99.90
13049;DHT22;6591;51.446;5.404;2023-04-24T07:04:25;11.50;99.90
13049;DHT22;6591;51.446;5.404;2023-04-24T07:06:53;10.70;99.90
13049;DHT22;6591;51.446;5.404;2023-04-24T07:09:22;10.60;99.90
13049;DHT22;6591;51.446;5.404;2023-04-24T07:11:52;10.60;99.90
13049;DHT22;6591;51.446;5.404;2023-04-24T07:14:20;10.70;99.90
13049;DHT22;6591;51.446;5.404;2023-04-24T07:16:47;10.60;99.90
13049;DHT22;6591;51.446;5.404;2023-04-24T07:19:14;11.00;99.90
13049;DHT22;6591;51.446;5.404;2023-04-24T07:21:41;10.60;99.90
13049;DHT22;6591;51.446;5.404;2023-04-24T07:24:08;10.60;99.90
13049;DHT22;6591;51.446;5.404;2023-04-24T07:26:38;11.70;99.90
13049;DHT22;6591;51.446;5.404;2023-04-24T07:29:06;10.70;99.90
13049;DHT22;6591;51.446;5.404;2023-04-24T07:31:34;11.30;99.90
13049;DHT22;6591;51.446;5.404;2023-04-24T07:34:01;10.70;99.90
13049;DHT22;6591;51.446;5.404;2023-04-24T07:36:28;10.70;99.90
13049;DHT22;6591;51.446;5.404;2023-04-24T07:38:55;10.70;99.90
13049;DHT22;6591;51.446;5.404;2023-04-24T07:41:23;10.70;99.90
13049;DHT22;6591;51.446;5.404;2023-04-24T07:43:51;10.90;99.90
13049;DHT22;6591;51.446;5.404;2023-04-24T07:46:20;10.60;99.90
13049;DHT22;6591;51.446;5.404;2023-04-24T07:48:50;10.60;99.90
13049;DHT22;6591;51.446;5.404;2023-04-24T07:51:31;10.60;99.90
13049;DHT22;6591;51.446;5.404;2023-04-24T07:54:01;11.80;99.90
13049;DHT22;6591;51.446;5.404;2023-04-24T07:56:28;10.60;99.90
13049;DHT22;6591;51.446;5.404;2023-04-24T07:58:58;10.50;99.90
13049;DHT22;6591;51.446;5.404;2023-04-24T08:01:25;10.50;99.90
13049;DHT22;6591;51.446;5.404;2023-04-24T08:03:52;10.50;99.90
13049;DHT22;6591;51.446;5.404;2023-04-24T08:06:19;10.50;99.90
13049;DHT22;6591;51.446;5.404;2023-04-24T08:08:47;11.40;99.90
13049;DHT22;6591;51.446;5.404;2023-04-24T08:11:14;10.60;99.90
13049;DHT22;6591;51.446;5.404;2023-04-24T08:13:41;10.60;99.90
13049;DHT22;6591;51.446;5.404;2023-04-24T08:16:08;10.60;99.90
13049;DHT22;6591;51.446;5.404;2023-04-24T08:18:35;10.60;99.90
13049;DHT22;6591;51.446;5.404;2023-04-24T08:21:02;11.20;99.90
13049;DHT22;6591;51.446;5.404;2023-04-24T08:23:30;10.70;99.90
13049;DHT22;6591;51.446;5.404;2023-04-24T08:25:57;10.70;99.90
13049;DHT22;6591;51.446;5.404;2023-04-24T08:28:24;10.90;99.90
13049;DHT22;6591;51.446;5.404;2023-04-24T08:30:51;13.00;99.90
13049;DHT22;6591;51.446;5.404;2023-04-24T08:33:24;10.70;99.90
13049;DHT22;6591;51.446;5.404;2023-04-24T08:35:52;10.80;99.90
13049;DHT22;6591;51.446;5.404;2023-04-24T08:38:19;10.80;99.90
13049;DHT22;6591;51.446;5.404;2023-04-24T08:40:47;10.80;99.90
13049;DHT22;6591;51.446;5.404;2023-04-24T08:43:16;10.80;99.90
13049;DHT22;6591;51.446;5.404;2023-04-24T08:45:43;10.80;99.90
13049;DHT22;6591;51.446;5.404;2023-04-24T08:48:11;11.90;99.90
13049;DHT22;6591;51.446;5.404;2023-04-24T08:50:56;11.00;99.90
13049;DHT22;6591;51.446;5.404;2023-04-24T08:53:25;9.70;99.90
13049;DHT22;6591;51.446;5.404;2023-04-24T08:55:54;11.00;99.90
13049;DHT22;6591;51.446;5.404;2023-04-24T08:58:25;12.60;99.90
13049;DHT22;6591;51.446;5.404;2023-04-24T09:00:57;11.20;99.90
13049;DHT22;6591;51.446;5.404;2023-04-24T09:03:27;11.40;99.90
13049;DHT22;6591;51.446;5.404;2023-04-24T09:05:57;11.40;99.90
13049;DHT22;6591;51.446;5.404;2023-04-24T09:08:26;11.50;99.90
13049;DHT22;6591;51.446;5.404;2023-04-24T09:10:54;12.40;99.90
13049;DHT22;6591;51.446;5.404;2023-04-24T09:13:21;12.90;99.90
13049;DHT22;6591;51.446;5.404;2023-04-24T09:15:48;11.50;99.90
13049;DHT22;6591;51.446;5.404;2023-04-24T09:18:16;12.80;99.90
13049;DHT22;6591;51.446;5.404;2023-04-24T09:23:29;11.40;99.90
13049;DHT22;6591;51.446;5.404;2023-04-24T09:25:58;11.40;99.90
13049;DHT22;6591;51.446;5.404;2023-04-24T09:28:34;11.40;99.90
13049;DHT22;6591;51.446;5.404;2023-04-24T09:31:14;12.40;99.90
13049;DHT22;6591;51.446;5.404;2023-04-24T09:34:14;11.50;99.90
13049;DHT22;6591;51.446;5.404;2023-04-24T09:36:47;11.50;99.90
13049;DHT22;6591;51.446;5.404;2023-04-24T09:39:15;11.60;99.90
13049;DHT22;6591;51.446;5.404;2023-04-24T09:41:49;12.50;99.90
13049;DHT22;6591;51.446;5.404;2023-04-24T09:44:21;11.60;99.90
13049;DHT22;6591;51.446;5.404;2023-04-24T09:46:53;11.70;99.90
13049;DHT22;6591;51.446;5.404;2023-04-24T09:49:26;11.70;99.90
13049;DHT22;6591;51.446;5.404;2023-04-24T09:52:07;11.70;99.90
13049;DHT22;6591;51.446;5.404;2023-04-24T09:54:36;11.70;99.90
13049;DHT22;6591;51.446;5.404;2023-04-24T09:57:04;11.70;99.90
13049;DHT22;6591;51.446;5.404;2023-04-24T09:59:34;11.80;99.90
13049;DHT22;6591;51.446;5.404;2023-04-24T10:02:03;11.80;99.90
13049;DHT22;6591;51.446;5.404;2023-04-24T10:04:55;14.20;99.90
13049;DHT22;6591;51.446;5.404;2023-04-24T10:07:26;12.10;99.90
13049;DHT22;6591;51.446;5.404;2023-04-24T10:09:54;12.30;99.90
13049;DHT22;6591;51.446;5.404;2023-04-24T10:12:21;12.40;99.90
13049;DHT22;6591;51.446;5.404;2023-04-24T10:14:50;12.50;99.90
13049;DHT22;6591;51.446;5.404;2023-04-24T10:17:18;12.60;99.90
13049;DHT22;6591;51.446;5.404;2023-04-24T10:19:48;13.00;99.90
13049;DHT22;6591;51.446;5.404;2023-04-24T10:22:15;12.80;99.90
13049;DHT22;6591;51.446;5.404;2023-04-24T10:24:45;12.80;99.90
13049;DHT22;6591;51.446;5.404;2023-04-24T10:27:15;12.80;99.90
13049;DHT22;6591;51.446;5.404;2023-04-24T10:29:43;12.90;99.90
13049;DHT22;6591;51.446;5.404;2023-04-24T10:32:12;13.00;99.90
13049;DHT22;6591;51.446;5.404;2023-04-24T10:34:39;12.90;99.90
13049;DHT22;6591;51.446;5.404;2023-04-24T10:37:06;13.00;99.90
13049;DHT22;6591;51.446;5.404;2023-04-24T10:39:34;12.90;99.90
13049;DHT22;6591;51.446;5.404;2023-04-24T10:42:02;12.90;99.90
13049;DHT22;6591;51.446;5.404;2023-04-24T10:44:37;12.90;99.90
13049;DHT22;6591;51.446;5.404;2023-04-24T10:47:13;13.80;99.90
13049;DHT22;6591;51.446;5.404;2023-04-24T10:49:41;12.70;99.90
13049;DHT22;6591;51.446;5.404;2023-04-24T10:52:09;13.60;99.90
13049;DHT22;6591;51.446;5.404;2023-04-24T10:54:42;12.60;99.90
13049;DHT22;6591;51.446;5.404;2023-04-24T10:59:51;12.70;99.90
13049;DHT22;6591;51.446;5.404;2023-04-24T11:02:37;14.00;99.90
13049;DHT22;6591;51.446;5.404;2023-04-24T11:05:07;12.90;99.90
13049;DHT22;6591;51.446;5.404;2023-04-24T11:08:12;14.20;99.90
13049;DHT22;6591;51.446;5.404;2023-04-24T11:10:45;13.10;99.90
13049;DHT22;6591;51.446;5.404;2023-04-24T11:13:16;13.20;99.90
13049;DHT22;6591;51.446;5.404;2023-04-24T11:18:42;13.40;99.90
13049;DHT22;6591;51.446;5.404;2023-04-24T11:21:17;13.50;99.90
13049;DHT22;6591;51.446;5.404;2023-04-24T11:23:45;13.70;99.90
13049;DHT22;6591;51.446;5.404;2023-04-24T11:26:21;13.50;99.90
13049;DHT22;6591;51.446;5.404;2023-04-24T11:28:50;13.50;99.90
13049;DHT22;6591;51.446;5.404;2023-04-24T11:31:37;13.50;99.90
13049;DHT22;6591;51.446;5.404;2023-04-24T11:34:07;13.50;99.90
13049;DHT22;6591;51.446;5.404;2023-04-24T11:36:36;13.40;99.90
13049;DHT22;6591;51.446;5.404;2023-04-24T11:39:04;14.30;99.90
13049;DHT22;6591;51.446;5.404;2023-04-24T11:41:32;13.60;99.90
13049;DHT22;6591;51.446;5.404;2023-04-24T11:44:02;13.60;99.90
13049;DHT22;6591;51.446;5.404;2023-04-24T11:46:30;13.50;99.90
13049;DHT22;6591;51.446;5.404;2023-04-24T11:48:59;13.60;99.90
13049;DHT22;6591;51.446;5.404;2023-04-24T11:51:27;13.60;99.90
13049;DHT22;6591;51.446;5.404;2023-04-24T11:54:07;13.50;99.90
13049;DHT22;6591;51.446;5.404;2023-04-24T11:56:34;13.60;99.90
13049;DHT22;6591;51.446;5.404;2023-04-24T11:59:04;13.80;99.90
13049;DHT22;6591;51.446;5.404;2023-04-24T12:01:43;13.50;99.90
13049;DHT22;6591;51.446;5.404;2023-04-24T12:04:14;13.50;99.90
13049;DHT22;6591;51.446;5.404;2023-04-24T12:07:00;14.00;99.90
13049;DHT22;6591;51.446;5.404;2023-04-24T12:09:45;13.70;99.90
13049;DHT22;6591;51.446;5.404;2023-04-24T12:12:17;13.60;99.90
13049;DHT22;6591;51.446;5.404;2023-04-24T12:14:57;13.80;99.90
13049;DHT22;6591;51.446;5.404;2023-04-24T12:17:30;13.70;99.90
13049;DHT22;6591;51.446;5.404;2023-04-24T12:22:27;13.90;99.90
13049;DHT22;6591;51.446;5.404;2023-04-24T12:25:04;14.00;99.90
13049;DHT22;6591;51.446;5.404;2023-04-24T12:27:32;14.10;99.90
13049;DHT22;6591;51.446;5.404;2023-04-24T12:30:01;14.10;99.90
13049;DHT22;6591;51.446;5.404;2023-04-24T12:32:30;14.20;99.90
13049;DHT22;6591;51.446;5.404;2023-04-24T12:34:58;14.20;99.90
13049;DHT22;6591;51.446;5.404;2023-04-24T12:37:26;14.30;99.90
13049;DHT22;6591;51.446;5.404;2023-04-24T12:40:10;14.30;99.90
13049;DHT22;6591;51.446;5.404;2023-04-24T12:42:45;14.40;99.90
13049;DHT22;6591;51.446;5.404;2023-04-24T12:45:13;14.40;99.90
13049;DHT22;6591;51.446;5.404;2023-04-24T12:47:42;14.40;99.90
13049;DHT22;6591;51.446;5.404;2023-04-24T12:50:14;14.40;99.90
13049;DHT22;6591;51.446;5.404;2023-04-24T12:52:43;14.50;99.90
13049;DHT22;6591;51.446;5.404;2023-04-24T12:55:10;14.50;99.90
13049;DHT22;6591;51.446;5.404;2023-04-24T12:57:39;14.50;99.90
13049;DHT22;6591;51.446;5.404;2023-04-24T13:00:08;14.60;99.90
13049;DHT22;6591;51.446;5.404;2023-04-24T13:02:36;14.60;99.90
13049;DHT22;6591;51.446;5.404;2023-04-24T13:05:03;14.70;99.90
13049;DHT22;6591;51.446;5.404;2023-04-24T13:07:31;14.70;99.90
13049;DHT22;6591;51.446;5.404;2023-04-24T13:09:58;14.80;99.90
13049;DHT22;6591;51.446;5.404;2023-04-24T13:12:25;16.50;99.90
13049;DHT22;6591;51.446;5.404;2023-04-24T13:14:53;15.30;99.90
13049;DHT22;6591;51.446;5.404;2023-04-24T13:17:21;15.10;99.90
13049;DHT22;6591;51.446;5.404;2023-04-24T13:19:50;15.90;99.90
13049;DHT22;6591;51.446;5.404;2023-04-24T13:22:18;16.00;99.90
13049;DHT22;6591;51.446;5.404;2023-04-24T13:24:45;14.90;99.90
13049;DHT22;6591;51.446;5.404;2023-04-24T13:27:12;14.90;99.90
13049;DHT22;6591;51.446;5.404;2023-04-24T13:29:39;14.70;99.90
13049;DHT22;6591;51.446;5.404;2023-04-24T13:32:08;14.50;99.90
13049;DHT22;6591;51.446;5.404;2023-04-24T13:34:35;14.40;99.90
13049;DHT22;6591;51.446;5.404;2023-04-24T13:37:03;14.20;99.90
13049;DHT22;6591;51.446;5.404;2023-04-24T13:39:31;14.00;99.90
13049;DHT22;6591;51.446;5.404;2023-04-24T13:41:58;13.80;99.90
13049;DHT22;6591;51.446;5.404;2023-04-24T13:44:26;13.60;99.90
13049;DHT22;6591;51.446;5.404;2023-04-24T13:46:55;13.40;99.90
13049;DHT22;6591;51.446;5.404;2023-04-24T13:49:24;13.40;99.90
13049;DHT22;6591;51.446;5.404;2023-04-24T13:51:53;13.20;99.90
13049;DHT22;6591;51.446;5.404;2023-04-24T13:54:21;13.10;99.90
13049;DHT22;6591;51.446;5.404;2023-04-24T13:56:50;13.10;99.90
13049;DHT22;6591;51.446;5.404;2023-04-24T13:59:19;13.10;99.90
13049;DHT22;6591;51.446;5.404;2023-04-24T14:01:47;13.20;99.90
13049;DHT22;6591;51.446;5.404;2023-04-24T14:04:15;13.20;99.90
13049;DHT22;6591;51.446;5.404;2023-04-24T14:06:43;13.30;99.90
13049;DHT22;6591;51.446;5.404;2023-04-24T14:09:10;13.40;99.90
13049;DHT22;6591;51.446;5.404;2023-04-24T14:11:38;13.50;99.90
13049;DHT22;6591;51.446;5.404;2023-04-24T14:14:05;13.60;99.90
13049;DHT22;6591;51.446;5.404;2023-04-24T14:16:32;13.60;99.90
13049;DHT22;6591;51.446;5.404;2023-04-24T14:18:59;13.70;99.90
13049;DHT22;6591;51.446;5.404;2023-04-24T14:21:27;14.10;99.90
13049;DHT22;6591;51.446;5.404;2023-04-24T14:23:54;13.70;99.90
13049;DHT22;6591;51.446;5.404;2023-04-24T14:26:21;13.70;99.90
13049;DHT22;6591;51.446;5.404;2023-04-24T14:28:48;13.60;99.90
13049;DHT22;6591;51.446;5.404;2023-04-24T14:31:18;13.50;99.90
13049;DHT22;6591;51.446;5.404;2023-04-24T14:33:45;13.40;99.90
13049;DHT22;6591;51.446;5.404;2023-04-24T14:36:12;13.10;99.90
13049;DHT22;6591;51.446;5.404;2023-04-24T14:38:39;13.00;99.90
13049;DHT22;6591;51.446;5.404;2023-04-24T14:41:06;12.90;99.90
13049;DHT22;6591;51.446;5.404;2023-04-24T14:43:40;12.90;99.90
13049;DHT22;6591;51.446;5.404;2023-04-24T14:46:07;13.10;99.90
13049;DHT22;6591;51.446;5.404;2023-04-24T14:48:34;13.40;99.90
13049;DHT22;6591;51.446;5.404;2023-04-24T14:51:01;13.10;99.90
13049;DHT22;6591;51.446;5.404;2023-04-24T14:53:28;13.30;99.90
13049;DHT22;6591;51.446;5.404;2023-04-24T14:55:55;13.50;99.90
13049;DHT22;6591;51.446;5.404;2023-04-24T14:58:22;13.60;99.90
13049;DHT22;6591;51.446;5.404;2023-04-24T15:00:49;13.80;99.90
13049;DHT22;6591;51.446;5.404;2023-04-24T15:03:18;13.90;99.90
13049;DHT22;6591;51.446;5.404;2023-04-24T15:05:46;14.00;99.90
13049;DHT22;6591;51.446;5.404;2023-04-24T15:08:13;14.10;99.90
13049;DHT22;6591;51.446;5.404;2023-04-24T15:10:40;14.20;99.90
13049;DHT22;6591;51.446;5.404;2023-04-24T15:13:07;14.30;99.90
13049;DHT22;6591;51.446;5.404;2023-04-24T15:15:34;14.40;99.90
13049;DHT22;6591;51.446;5.404;2023-04-24T15:18:01;15.60;99.90
13049;DHT22;6591;51.446;5.404;2023-04-24T15:20:28;14.40;99.90
13049;DHT22;6591;51.446;5.404;2023-04-24T15:22:55;14.50;99.90
13049;DHT22;6591;51.446;5.404;2023-04-24T15:25:22;16.30;99.90
13049;DHT22;6591;51.446;5.404;2023-04-24T15:27:49;14.80;99.90
13049;DHT22;6591;51.446;5.404;2023-04-24T15:30:16;14.90;99.90
13049;DHT22;6591;51.446;5.404;2023-04-24T15:32:44;15.10;99.90
13049;DHT22;6591;51.446;5.404;2023-04-24T15:35:11;15.30;99.90
13049;DHT22;6591;51.446;5.404;2023-04-24T15:37:38;15.40;99.90
13049;DHT22;6591;51.446;5.404;2023-04-24T15:40:06;15.70;99.90
13049;DHT22;6591;51.446;5.404;2023-04-24T15:42:34;15.90;99.90
13049;DHT22;6591;51.446;5.404;2023-04-24T15:45:04;15.80;99.90
13049;DHT22;6591;51.446;5.404;2023-04-24T15:47:33;16.30;99.90
13049;DHT22;6591;51.446;5.404;2023-04-24T15:50:00;16.50;99.90
13049;DHT22;6591;51.446;5.404;2023-04-24T15:52:28;17.30;99.90
13049;DHT22;6591;51.446;5.404;2023-04-24T15:54:55;16.70;99.90
13049;DHT22;6591;51.446;5.404;2023-04-24T15:57:22;16.70;99.80
13049;DHT22;6591;51.446;5.404;2023-04-24T15:59:49;16.80;99.60
13049;DHT22;6591;51.446;5.404;2023-04-24T16:02:16;17.50;99.40
13049;DHT22;6591;51.446;5.404;2023-04-24T16:04:47;16.80;98.70
13049;DHT22;6591;51.446;5.404;2023-04-24T16:07:16;16.70;98.90
13049;DHT22;6591;51.446;5.404;2023-04-24T16:09:46;16.60;99.30